createdAt,value
2017-10-03T00:01:57.867Z,12.00
2017-10-03T00:04:25.681Z,12.10
2017-10-03T00:06:54.205Z,12.00
2017-10-03T00:09:21.971Z,12.00
2017-10-03T00:11:49.780Z,12.00
2017-10-03T00:14:18.315Z,11.90
2017-10-03T00:16:46.075Z,11.80
2017-10-03T00:19:13.900Z,11.80
2017-10-03T00:21:41.663Z,11.80
2017-10-03T00:24:09.418Z,11.80
2017-10-03T00:26:37.999Z,11.80
2017-10-03T00:29:06.523Z,11.80
2017-10-03T00:31:34.284Z,11.80
2017-10-03T00:34:02.112Z,11.80
2017-10-03T00:36:29.887Z,11.90
2017-10-03T00:38:57.702Z,11.90
2017-10-03T00:41:25.723Z,11.90
2017-10-03T00:43:53.671Z,11.80
2017-10-03T00:46:21.430Z,11.90
2017-10-03T00:48:49.243Z,11.90
2017-10-03T00:51:17.016Z,11.90
2017-10-03T00:53:44.775Z,11.90
2017-10-03T00:56:12.599Z,11.90
2017-10-03T00:58:40.368Z,11.90
2017-10-03T01:01:08.134Z,11.80
2017-10-03T01:03:35.954Z,11.80
2017-10-03T01:06:04.480Z,11.80
2017-10-03T01:08:32.238Z,11.80
2017-10-03T01:11:00.092Z,11.80
2017-10-03T01:13:27.843Z,11.80
2017-10-03T01:15:56.380Z,11.80
2017-10-03T01:18:24.204Z,11.80
2017-10-03T01:20:51.962Z,11.80
2017-10-03T01:23:19.720Z,11.80
2017-10-03T01:25:47.543Z,11.80
2017-10-03T01:28:16.078Z,11.70
2017-10-03T01:30:43.839Z,11.70
2017-10-03T01:33:11.668Z,11.80
2017-10-03T01:35:39.435Z,11.70
2017-10-03T01:38:07.211Z,11.70
2017-10-03T01:40:35.024Z,11.70
2017-10-03T01:43:02.812Z,11.80
2017-10-03T01:45:30.588Z,11.70
2017-10-03T01:47:58.412Z,11.80
2017-10-03T01:50:26.178Z,11.80
2017-10-03T01:52:54.703Z,11.90
2017-10-03T01:55:22.514Z,11.90
2017-10-03T01:57:50.287Z,11.90
2017-10-03T02:00:18.811Z,11.90
2017-10-03T02:02:46.631Z,11.80
2017-10-03T02:05:15.150Z,11.80
2017-10-03T02:07:42.907Z,11.80
2017-10-03T02:10:10.723Z,11.90
2017-10-03T02:12:38.478Z,11.90
2017-10-03T02:15:06.251Z,11.90
2017-10-03T02:17:34.827Z,11.90
2017-10-03T02:20:02.617Z,11.90
2017-10-03T02:22:30.379Z,11.90
2017-10-03T02:24:58.214Z,11.90
2017-10-03T02:27:25.972Z,11.80
2017-10-03T02:29:53.724Z,11.80
2017-10-03T02:32:21.535Z,11.80
2017-10-03T02:34:49.294Z,11.80
2017-10-03T02:37:17.050Z,11.90
2017-10-03T02:39:44.896Z,11.90
2017-10-03T02:42:13.441Z,11.80
2017-10-03T02:44:41.200Z,11.80
2017-10-03T02:47:09.019Z,11.80
2017-10-03T02:49:36.777Z,11.80
2017-10-03T02:52:04.539Z,11.90
2017-10-03T02:54:32.362Z,11.90
2017-10-03T02:57:00.124Z,11.90
2017-10-03T02:59:27.878Z,11.90
2017-10-03T03:01:55.691Z,11.90
2017-10-03T03:04:23.444Z,12.00
2017-10-03T03:06:51.968Z,11.90
2017-10-03T03:09:19.799Z,11.90
2017-10-03T03:11:47.639Z,11.90
2017-10-03T03:14:16.177Z,11.90
2017-10-03T03:16:43.995Z,11.90
2017-10-03T03:19:12.511Z,11.90
2017-10-03T03:21:40.299Z,11.90
2017-10-03T03:24:08.120Z,11.90
2017-10-03T03:26:35.875Z,11.90
2017-10-03T03:29:03.633Z,11.90
2017-10-03T03:31:31.449Z,11.90
2017-10-03T03:33:59.206Z,11.90
2017-10-03T03:36:26.965Z,11.90
2017-10-03T03:38:54.783Z,11.90
2017-10-03T03:41:22.539Z,12.00
2017-10-03T03:43:50.294Z,12.00
2017-10-03T03:46:18.871Z,12.00
2017-10-03T03:48:47.400Z,11.90
2017-10-03T03:51:15.162Z,11.90
2017-10-03T03:53:42.979Z,11.90
2017-10-03T03:56:10.760Z,11.90
2017-10-03T03:58:38.522Z,11.90
2017-10-03T04:01:06.339Z,11.90
2017-10-03T04:03:34.182Z,12.00
2017-10-03T04:06:01.935Z,12.10
2017-10-03T04:08:29.756Z,12.10
2017-10-03T04:10:57.518Z,12.10
2017-10-03T04:13:25.295Z,12.00
2017-10-03T04:15:53.110Z,12.10
2017-10-03T04:18:21.044Z,12.10
2017-10-03T04:20:48.798Z,12.10
2017-10-03T04:23:16.625Z,12.10
2017-10-03T04:25:45.152Z,12.10
2017-10-03T04:28:12.930Z,12.10
2017-10-03T04:30:40.740Z,12.10
2017-10-03T04:33:08.495Z,12.00
2017-10-03T04:35:36.249Z,12.10
2017-10-03T04:38:04.917Z,12.10
2017-10-03T04:40:33.440Z,12.10
2017-10-03T04:43:01.199Z,12.10
2017-10-03T04:45:29.004Z,12.10
2017-10-03T04:47:56.775Z,12.10
2017-10-03T04:50:24.531Z,12.10
2017-10-03T04:52:52.351Z,12.10
2017-10-03T04:55:20.103Z,12.20
2017-10-03T04:57:47.863Z,12.10
2017-10-03T05:00:15.683Z,12.10
2017-10-03T05:02:43.443Z,12.10
2017-10-03T05:05:11.199Z,12.20
2017-10-03T05:07:39.018Z,12.30
2017-10-03T05:10:06.781Z,12.30
2017-10-03T05:12:34.535Z,12.30
2017-10-03T05:15:02.350Z,12.30
2017-10-03T05:17:30.132Z,12.30
2017-10-03T05:19:58.671Z,12.40
2017-10-03T05:22:26.484Z,12.40
2017-10-03T05:24:55.010Z,12.50
2017-10-03T05:27:22.764Z,12.50
2017-10-03T05:29:50.670Z,12.50
2017-10-03T05:32:18.418Z,12.50
2017-10-03T05:34:46.186Z,12.50
2017-10-03T05:37:14.008Z,12.60
2017-10-03T05:39:44.920Z,12.60
2017-10-03T05:42:12.675Z,12.60
2017-10-03T05:44:41.263Z,12.60
2017-10-03T05:47:09.024Z,12.60
2017-10-03T05:49:36.779Z,12.60
2017-10-03T05:52:05.360Z,12.60
2017-10-03T05:54:33.884Z,12.60
2017-10-03T05:57:01.639Z,12.60
2017-10-03T05:59:29.461Z,12.70
2017-10-03T06:01:57.989Z,12.70
2017-10-03T06:04:25.752Z,12.70
2017-10-03T06:06:53.571Z,12.80
2017-10-03T06:09:21.331Z,12.80
2017-10-03T06:11:49.853Z,12.80
2017-10-03T06:14:17.672Z,12.80
2017-10-03T06:16:46.318Z,12.80
2017-10-03T06:19:14.124Z,12.80
2017-10-03T06:21:41.946Z,12.80
2017-10-03T06:24:09.750Z,12.90
2017-10-03T06:26:37.512Z,12.90
2017-10-03T06:29:05.324Z,12.80
2017-10-03T06:31:33.880Z,13.00
2017-10-03T06:34:01.633Z,13.00
2017-10-03T06:36:29.453Z,13.10
2017-10-03T06:38:57.508Z,13.20
2017-10-03T06:41:26.074Z,13.20
2017-10-03T06:43:53.891Z,13.20
2017-10-03T06:46:21.656Z,13.30
2017-10-03T06:48:49.411Z,13.30
2017-10-03T06:51:17.226Z,13.40
2017-10-03T06:53:44.973Z,13.50
2017-10-03T06:56:12.728Z,13.60
2017-10-03T06:58:40.538Z,13.60
2017-10-03T07:01:09.079Z,13.80
2017-10-03T07:03:36.827Z,13.80
2017-10-03T07:06:04.642Z,13.90
2017-10-03T07:08:32.401Z,14.00
2017-10-03T07:11:00.151Z,14.00
2017-10-03T07:13:27.988Z,13.90
2017-10-03T07:15:55.739Z,14.00
2017-10-03T07:18:23.492Z,13.90
2017-10-03T07:20:51.300Z,13.90
2017-10-03T07:23:21.304Z,14.00
2017-10-03T07:25:49.090Z,14.00
2017-10-03T07:28:17.658Z,14.00
2017-10-03T07:30:45.415Z,14.00
2017-10-03T07:33:13.163Z,14.10
2017-10-03T07:35:40.976Z,14.10
2017-10-03T07:38:08.724Z,14.20
2017-10-03T07:40:37.237Z,14.20
2017-10-03T07:43:05.073Z,14.20
2017-10-03T07:45:32.830Z,14.20
2017-10-03T07:48:01.352Z,14.20
2017-10-03T07:50:29.170Z,14.20
2017-10-03T07:52:57.683Z,14.10
2017-10-03T07:55:25.463Z,14.10
2017-10-03T07:57:53.286Z,14.00
2017-10-03T08:00:21.803Z,14.00
2017-10-03T08:02:49.552Z,14.00
2017-10-03T08:05:17.359Z,14.00
2017-10-03T08:07:45.112Z,14.10
2017-10-03T08:10:12.860Z,14.00
2017-10-03T08:12:40.683Z,14.00
2017-10-03T08:15:08.436Z,14.00
2017-10-03T08:17:36.956Z,14.00
2017-10-03T08:20:04.763Z,14.00
2017-10-03T08:22:33.317Z,13.90
2017-10-03T08:25:01.081Z,14.00
2017-10-03T08:27:28.904Z,14.00
2017-10-03T08:29:56.655Z,14.00
2017-10-03T08:32:24.411Z,14.00
2017-10-03T08:34:52.211Z,13.90
2017-10-03T08:37:19.963Z,14.00
2017-10-03T08:39:47.710Z,14.00
2017-10-03T08:42:15.527Z,14.00
2017-10-03T08:44:43.277Z,14.00
2017-10-03T08:47:11.056Z,14.00
2017-10-03T08:49:38.866Z,13.90
2017-10-03T08:52:06.614Z,13.90
2017-10-03T08:54:34.371Z,13.90
2017-10-03T08:57:02.179Z,13.90
2017-10-03T08:59:29.927Z,13.80
2017-10-03T09:01:57.684Z,13.70
2017-10-03T09:04:25.487Z,13.70
2017-10-03T09:06:53.237Z,13.80
2017-10-03T09:09:20.993Z,13.80
2017-10-03T09:11:48.811Z,13.80
2017-10-03T09:14:16.571Z,13.80
2017-10-03T09:16:44.337Z,13.90
2017-10-03T09:19:12.142Z,13.90
2017-10-03T09:21:39.892Z,13.90
2017-10-03T09:24:07.642Z,13.90
2017-10-03T09:26:35.452Z,13.90
2017-10-03T09:29:03.975Z,13.90
2017-10-03T09:31:31.943Z,13.90
2017-10-03T09:33:59.747Z,13.90
2017-10-03T09:36:27.498Z,13.90
2017-10-03T09:38:55.252Z,13.90
2017-10-03T09:41:23.064Z,13.90
2017-10-03T09:43:50.815Z,13.80
2017-10-03T09:46:19.335Z,13.80
2017-10-03T09:48:47.148Z,13.80
2017-10-03T09:51:15.663Z,13.80
2017-10-03T09:53:43.414Z,13.80
2017-10-03T09:56:11.226Z,13.90
2017-10-03T09:58:38.976Z,13.90
2017-10-03T10:01:06.730Z,14.00
2017-10-03T10:03:34.534Z,14.10
2017-10-03T10:06:03.043Z,14.20
2017-10-03T10:08:30.795Z,14.20
2017-10-03T10:10:58.610Z,14.20
2017-10-03T10:13:26.358Z,14.20
2017-10-03T10:15:54.108Z,14.30
2017-10-03T10:18:21.924Z,14.20
2017-10-03T10:20:50.443Z,14.50
2017-10-03T10:23:18.205Z,14.50
2017-10-03T10:25:46.020Z,14.50
2017-10-03T10:28:13.771Z,14.50
2017-10-03T10:30:41.522Z,14.60
2017-10-03T10:33:09.337Z,14.50
2017-10-03T10:35:37.094Z,14.30
2017-10-03T10:38:04.860Z,14.20
2017-10-03T10:40:32.672Z,14.10
2017-10-03T10:43:00.443Z,14.20
2017-10-03T10:45:28.202Z,14.40
2017-10-03T10:47:56.010Z,14.40
2017-10-03T10:50:23.779Z,14.60
2017-10-03T10:52:51.528Z,14.60
2017-10-03T10:55:19.335Z,14.70
2017-10-03T10:57:47.088Z,14.90
2017-10-03T11:00:14.851Z,15.10
2017-10-03T11:02:42.664Z,15.00
2017-10-03T11:05:11.176Z,14.80
2017-10-03T11:07:38.931Z,14.80
2017-10-03T11:10:06.740Z,14.70
2017-10-03T11:12:34.492Z,14.50
2017-10-03T11:15:02.244Z,14.30
2017-10-03T11:17:30.051Z,14.20
2017-10-03T11:19:58.577Z,14.30
2017-10-03T11:22:26.336Z,14.30
2017-10-03T11:24:54.146Z,14.30
2017-10-03T11:27:21.906Z,14.50
2017-10-03T11:29:49.664Z,14.70
2017-10-03T11:32:17.464Z,15.00
2017-10-03T11:34:45.219Z,15.00
2017-10-03T11:37:12.967Z,14.70
2017-10-03T11:39:41.004Z,14.50
2017-10-03T11:42:08.755Z,14.40
2017-10-03T11:44:36.521Z,14.40
2017-10-03T11:47:04.329Z,14.20
2017-10-03T11:49:32.860Z,14.00
2017-10-03T11:52:00.611Z,14.00
2017-10-03T11:54:28.421Z,13.90
2017-10-03T11:56:56.973Z,14.00
2017-10-03T11:59:24.742Z,13.90
2017-10-03T12:01:52.552Z,14.00
2017-10-03T12:04:20.311Z,14.00
2017-10-03T12:06:48.064Z,14.00
2017-10-03T12:09:15.871Z,14.00
2017-10-03T12:11:43.647Z,13.90
2017-10-03T12:14:11.429Z,13.90
2017-10-03T12:16:40.004Z,13.90
2017-10-03T12:19:07.755Z,13.90
2017-10-03T12:21:35.508Z,13.90
2017-10-03T12:24:03.328Z,13.90
2017-10-03T12:26:31.078Z,13.90
2017-10-03T12:28:58.840Z,13.90
2017-10-03T12:31:26.653Z,14.00
2017-10-03T12:33:54.403Z,13.90
2017-10-03T12:36:22.151Z,13.90
2017-10-03T12:38:49.960Z,14.00
2017-10-03T12:41:17.716Z,14.00
2017-10-03T12:43:45.480Z,14.10
2017-10-03T12:46:13.310Z,14.10
2017-10-03T12:48:41.830Z,13.80
2017-10-03T12:51:10.349Z,13.70
2017-10-03T12:53:38.193Z,13.70
2017-10-03T12:56:05.953Z,13.60
2017-10-03T12:58:33.705Z,13.60
2017-10-03T13:01:02.284Z,13.70
2017-10-03T13:03:30.828Z,13.60
2017-10-03T13:05:58.601Z,13.60
2017-10-03T13:08:26.443Z,13.60
2017-10-03T13:10:54.197Z,13.60
2017-10-03T13:13:22.007Z,13.70
2017-10-03T13:15:50.590Z,13.70
2017-10-03T13:18:19.110Z,13.60
2017-10-03T13:20:46.864Z,13.60
2017-10-03T13:23:14.680Z,13.50
2017-10-03T13:25:42.477Z,13.50
2017-10-03T13:28:10.231Z,13.50
2017-10-03T13:30:38.038Z,13.60
2017-10-03T13:33:05.913Z,13.70
2017-10-03T13:35:33.667Z,13.70
2017-10-03T13:38:01.493Z,13.70
2017-10-03T13:40:29.247Z,13.90
2017-10-03T13:42:57.011Z,14.00
2017-10-03T13:45:24.836Z,14.10
2017-10-03T13:47:52.773Z,14.20
2017-10-03T13:50:20.635Z,14.30
2017-10-03T13:52:48.447Z,14.40
2017-10-03T13:55:16.962Z,14.40
2017-10-03T13:57:44.720Z,14.40
2017-10-03T14:00:12.553Z,14.40
2017-10-03T14:02:41.080Z,14.40
2017-10-03T14:05:08.834Z,14.30
2017-10-03T14:07:36.649Z,14.40
2017-10-03T14:10:04.408Z,14.50
2017-10-03T14:12:32.172Z,14.50
2017-10-03T14:15:00.771Z,14.30
2017-10-03T14:17:29.291Z,14.30
2017-10-03T14:19:57.816Z,14.20
2017-10-03T14:22:26.391Z,14.20
2017-10-03T14:24:54.910Z,14.10
2017-10-03T14:27:22.679Z,14.10
2017-10-03T14:29:50.490Z,14.00
2017-10-03T14:32:18.242Z,14.00
2017-10-03T14:34:46.009Z,13.90
2017-10-03T14:37:14.172Z,13.80
2017-10-03T14:39:41.924Z,13.90
2017-10-03T14:42:09.676Z,13.90
2017-10-03T14:44:37.491Z,14.00
2017-10-03T14:47:06.020Z,13.70
2017-10-03T14:49:33.774Z,13.70
2017-10-03T14:52:01.589Z,13.70
2017-10-03T14:54:30.105Z,13.70
2017-10-03T14:56:57.866Z,13.70
2017-10-03T14:59:25.684Z,13.70
2017-10-03T15:01:54.221Z,13.90
2017-10-03T15:04:21.980Z,13.90
2017-10-03T15:06:49.808Z,14.00
2017-10-03T15:09:18.331Z,14.10
2017-10-03T15:11:46.078Z,14.10
2017-10-03T15:14:13.895Z,14.10
2017-10-03T15:16:42.419Z,13.90
2017-10-03T15:19:10.175Z,13.90
2017-10-03T15:21:37.996Z,13.90
2017-10-03T15:24:06.517Z,13.80
2017-10-03T15:26:34.274Z,13.80
2017-10-03T15:29:02.096Z,13.90
2017-10-03T15:31:29.852Z,13.90
2017-10-03T15:33:57.612Z,14.00
2017-10-03T15:36:25.441Z,13.90
2017-10-03T15:38:53.229Z,13.90
2017-10-03T15:41:21.003Z,13.90
2017-10-03T15:43:48.822Z,13.80
2017-10-03T15:46:16.579Z,13.70
2017-10-03T15:48:46.053Z,13.70
2017-10-03T15:51:13.939Z,13.70
2017-10-03T15:53:41.759Z,13.60
2017-10-03T15:56:10.295Z,13.50
2017-10-03T15:58:39.080Z,13.50
2017-10-03T16:01:08.842Z,13.50
2017-10-03T16:03:37.475Z,13.60
2017-10-03T16:06:05.363Z,13.60
2017-10-03T16:08:33.144Z,13.60
2017-10-03T16:11:00.990Z,13.60
2017-10-03T16:13:28.878Z,13.60
2017-10-03T16:15:57.611Z,13.50
2017-10-03T16:18:26.638Z,13.50
2017-10-03T16:20:56.095Z,13.40
2017-10-03T16:23:23.933Z,13.40
2017-10-03T16:25:52.543Z,13.10
2017-10-03T16:28:20.362Z,13.10
2017-10-03T16:30:49.415Z,12.90
2017-10-03T16:33:17.310Z,12.90
2017-10-03T16:35:45.174Z,12.90
2017-10-03T16:38:12.935Z,12.80
2017-10-03T16:40:40.744Z,12.70
2017-10-03T16:43:08.571Z,12.70
2017-10-03T16:45:37.110Z,12.30
2017-10-03T16:48:04.919Z,12.30
2017-10-03T16:50:33.561Z,12.10
2017-10-03T16:53:01.601Z,12.00
2017-10-03T16:55:29.397Z,12.00
2017-10-03T16:57:57.329Z,11.90
2017-10-03T17:00:25.950Z,11.90
2017-10-03T17:02:53.734Z,11.90
2017-10-03T17:05:22.327Z,11.90
2017-10-03T17:07:50.935Z,11.90
2017-10-03T17:10:19.499Z,11.90
2017-10-03T17:12:47.359Z,11.90
2017-10-03T17:15:15.182Z,11.90
2017-10-03T17:17:43.029Z,11.90
2017-10-03T17:20:10.898Z,12.00
2017-10-03T17:22:38.689Z,12.00
2017-10-03T17:25:07.249Z,12.10
2017-10-03T17:27:35.085Z,12.10
2017-10-03T17:30:02.880Z,12.10
2017-10-03T17:32:30.644Z,12.20
2017-10-03T17:34:58.462Z,12.20
2017-10-03T17:37:26.218Z,12.10
2017-10-03T17:39:53.979Z,12.10
2017-10-03T17:42:21.795Z,12.10
2017-10-03T17:44:49.562Z,12.00
2017-10-03T17:47:17.326Z,12.00
2017-10-03T17:49:45.268Z,12.00
2017-10-03T17:52:13.029Z,11.90
2017-10-03T17:54:40.852Z,11.90
2017-10-03T17:57:08.760Z,11.80
2017-10-03T17:59:36.520Z,11.70
2017-10-03T18:02:04.279Z,11.50
2017-10-03T18:04:32.094Z,11.50
2017-10-03T18:07:00.628Z,11.30
2017-10-03T18:09:28.395Z,11.30
2017-10-03T18:11:56.217Z,11.20
2017-10-03T18:14:23.976Z,11.20
2017-10-03T18:16:51.740Z,11.10
2017-10-03T18:19:19.582Z,11.10
2017-10-03T18:21:47.368Z,11.20
2017-10-03T18:24:15.134Z,11.20
2017-10-03T18:26:42.964Z,11.30
2017-10-03T18:29:11.607Z,11.30
2017-10-03T18:31:39.369Z,11.40
2017-10-03T18:34:07.203Z,11.30
2017-10-03T18:36:35.740Z,11.30
2017-10-03T18:39:07.568Z,11.20
2017-10-03T18:41:35.502Z,11.20
2017-10-03T18:44:03.279Z,11.20
2017-10-03T18:46:32.082Z,11.20
2017-10-03T18:48:59.952Z,11.20
2017-10-03T18:51:27.717Z,11.10
2017-10-03T18:53:55.476Z,11.10
2017-10-03T18:56:23.291Z,11.00
2017-10-03T18:58:51.059Z,10.90
2017-10-03T19:01:18.820Z,10.90
2017-10-03T19:03:46.640Z,11.00
2017-10-03T19:06:15.168Z,11.10
2017-10-03T19:08:42.932Z,11.00
2017-10-03T19:11:10.749Z,11.10
2017-10-03T19:13:39.277Z,11.00
2017-10-03T19:16:07.034Z,11.00
2017-10-03T19:18:34.856Z,11.10
2017-10-03T19:21:03.383Z,10.90
2017-10-03T19:23:31.144Z,10.90
2017-10-03T19:25:59.649Z,10.90
2017-10-03T19:28:27.419Z,10.80
2017-10-03T19:30:55.360Z,10.70
2017-10-03T19:33:23.199Z,10.60
2017-10-03T19:35:50.960Z,10.60
2017-10-03T19:38:18.719Z,10.50
2017-10-03T19:40:46.554Z,10.50
2017-10-03T19:43:15.085Z,10.50
2017-10-03T19:45:42.857Z,10.40
2017-10-03T19:48:10.676Z,10.40
2017-10-03T19:50:38.432Z,10.40
2017-10-03T19:53:06.203Z,10.30
2017-10-03T19:55:34.029Z,10.30
2017-10-03T19:58:01.822Z,10.20
2017-10-03T20:00:29.611Z,10.20
2017-10-03T20:02:57.447Z,10.10
2017-10-03T20:05:25.222Z,10.10
2017-10-03T20:07:52.984Z,10.00
2017-10-03T20:10:20.835Z,10.00
2017-10-03T20:12:48.592Z,9.90
2017-10-03T20:15:16.446Z,9.90
2017-10-03T20:17:45.063Z,9.90
2017-10-03T20:20:12.877Z,9.80
2017-10-03T20:22:41.163Z,9.90
2017-10-03T20:25:09.740Z,9.80
2017-10-03T20:27:38.288Z,9.80
2017-10-03T20:30:06.053Z,9.80
2017-10-03T20:32:33.900Z,9.80
2017-10-03T20:35:01.704Z,9.70
2017-10-03T20:37:30.219Z,9.70
2017-10-03T20:39:58.037Z,9.70
2017-10-03T20:42:25.797Z,9.70
2017-10-03T20:44:54.306Z,9.70
2017-10-03T20:47:22.316Z,9.80
2017-10-03T20:49:50.079Z,9.80
2017-10-03T20:52:17.873Z,9.80
2017-10-03T20:54:46.466Z,9.70
2017-10-03T20:57:15.004Z,9.70
2017-10-03T20:59:42.758Z,9.70
2017-10-03T21:02:10.711Z,9.70
2017-10-03T21:04:38.510Z,9.70
2017-10-03T21:07:06.338Z,9.70
2017-10-03T21:09:34.153Z,9.70
2017-10-03T21:12:02.670Z,9.60
2017-10-03T21:14:30.423Z,9.50
2017-10-03T21:16:58.232Z,9.60
2017-10-03T21:19:26.000Z,9.60
2017-10-03T21:21:53.775Z,9.60
2017-10-03T21:24:21.625Z,9.60
2017-10-03T21:26:49.400Z,9.50
2017-10-03T21:29:18.060Z,9.50
2017-10-03T21:31:45.906Z,9.50
2017-10-03T21:34:13.668Z,9.50
2017-10-03T21:36:41.414Z,9.40
2017-10-03T21:39:09.229Z,9.30
2017-10-03T21:41:48.795Z,9.40
2017-10-03T21:44:16.613Z,9.40
2017-10-03T21:46:44.366Z,9.40
2017-10-03T21:49:12.116Z,9.40
2017-10-03T21:51:39.923Z,9.40
2017-10-03T21:54:09.501Z,9.30
2017-10-03T21:56:37.256Z,9.30
2017-10-03T21:59:05.063Z,9.30
2017-10-03T22:01:33.584Z,9.20
2017-10-03T22:04:01.333Z,9.20
2017-10-03T22:06:29.147Z,9.20
2017-10-03T22:08:56.902Z,9.10
2017-10-03T22:11:24.660Z,9.10
2017-10-03T22:13:52.483Z,9.10
2017-10-03T22:16:20.235Z,9.10
2017-10-03T22:18:47.988Z,9.20
2017-10-03T22:21:15.791Z,9.20
2017-10-03T22:23:43.540Z,9.20
2017-10-03T22:26:11.297Z,9.20
2017-10-03T22:28:39.100Z,9.10
2017-10-03T22:31:06.850Z,9.10
2017-10-03T22:33:34.595Z,9.10
2017-10-03T22:36:02.428Z,9.10
2017-10-03T22:38:30.179Z,9.00
2017-10-03T22:40:57.924Z,9.00
2017-10-03T22:43:26.496Z,9.10
2017-10-03T22:45:54.243Z,9.10
2017-10-03T22:48:21.994Z,9.20
2017-10-03T22:50:49.808Z,9.20
2017-10-03T22:53:17.557Z,9.20
2017-10-03T22:55:46.076Z,9.30
2017-10-03T22:58:13.875Z,9.40
2017-10-03T23:00:41.631Z,9.40
2017-10-03T23:03:09.382Z,9.40
2017-10-03T23:05:37.554Z,9.30
2017-10-03T23:08:05.304Z,9.30
2017-10-03T23:10:33.051Z,9.40
2017-10-03T23:13:00.856Z,9.40
2017-10-03T23:15:28.610Z,9.40
2017-10-03T23:17:56.357Z,9.30
2017-10-03T23:20:24.158Z,9.40
2017-10-03T23:22:52.667Z,9.40
2017-10-03T23:25:20.415Z,9.30
2017-10-03T23:27:48.219Z,9.30
2017-10-03T23:30:15.966Z,9.30
2017-10-03T23:32:43.708Z,9.40
2017-10-03T23:35:11.516Z,9.40
2017-10-03T23:37:39.263Z,9.40
2017-10-03T23:40:07.016Z,9.40
2017-10-03T23:42:35.004Z,9.40
2017-10-03T23:45:02.757Z,9.40
2017-10-03T23:47:31.268Z,9.30
2017-10-03T23:49:59.838Z,9.20
2017-10-03T23:52:27.586Z,9.20
2017-10-03T23:54:55.330Z,9.20
2017-10-03T23:57:23.132Z,9.20
2017-10-03T23:59:50.883Z,9.10
